createdAt,value
2022-11-03T00:01:29.626Z,1012.999
2022-11-03T00:06:41.941Z,1013.026
2022-11-03T00:11:54.071Z,1013.04
2022-11-03T00:17:06.756Z,1012.975
2022-11-03T00:22:19.838Z,1012.906
2022-11-03T00:27:31.562Z,1012.884
2022-11-03T00:32:43.870Z,1012.891
2022-11-03T00:37:56.352Z,1012.878
2022-11-03T00:43:08.552Z,1012.708
2022-11-03T00:48:20.878Z,1012.69
2022-11-03T00:53:33.126Z,1012.619
2022-11-03T00:58:45.442Z,1012.543
2022-11-03T01:04:00.621Z,1012.585
2022-11-03T01:09:13.060Z,1012.569
2022-11-03T01:14:25.515Z,1012.537
2022-11-03T01:19:38.039Z,1012.563
2022-11-03T01:24:50.556Z,1012.523
2022-11-03T01:30:02.698Z,1012.578
2022-11-03T01:35:15.680Z,1012.554
2022-11-03T01:40:28.027Z,1012.629
2022-11-03T01:45:40.750Z,1012.425
2022-11-03T01:50:52.975Z,1012.458
2022-11-03T01:56:05.570Z,1012.423
2022-11-03T02:01:18.049Z,1012.309
2022-11-03T02:06:30.202Z,1012.212
2022-11-03T02:11:42.886Z,1012.228
2022-11-03T02:16:55.077Z,1012.129
2022-11-03T02:22:07.644Z,1012.11
2022-11-03T02:27:20.272Z,1012.068
2022-11-03T02:37:45.229Z,1012.113
2022-11-03T02:43:03.181Z,1012.113
2022-11-03T02:48:15.568Z,1012.038
2022-11-03T02:53:28.132Z,1012.003
2022-11-03T02:58:40.359Z,1011.859
2022-11-03T03:03:52.860Z,1011.833
2022-11-03T03:09:05.068Z,1011.759
2022-11-03T03:14:17.484Z,1011.677
2022-11-03T03:19:30.052Z,1011.756
2022-11-03T03:24:42.413Z,1011.698
2022-11-03T03:29:54.625Z,1011.742
2022-11-03T03:35:06.955Z,1011.679
2022-11-03T03:40:19.321Z,1011.604
2022-11-03T03:45:31.647Z,1011.591
2022-11-03T03:50:43.968Z,1011.535
2022-11-03T04:01:08.414Z,1011.46
2022-11-03T04:06:26.778Z,1011.456
2022-11-03T04:11:39.014Z,1011.501
2022-11-03T04:16:51.292Z,1011.439
2022-11-03T04:22:03.610Z,1011.45
2022-11-03T04:27:16.160Z,1011.325
2022-11-03T04:32:28.637Z,1011.29
2022-11-03T04:37:44.905Z,1011.271
2022-11-03T04:42:53.318Z,1011.182
2022-11-03T04:48:05.652Z,1011.126
2022-11-03T04:53:17.915Z,1011.08
2022-11-03T04:58:30.230Z,1011.021
2022-11-03T05:03:42.581Z,1010.98
2022-11-03T05:08:54.830Z,1011.021
2022-11-03T05:14:07.310Z,1010.957
2022-11-03T05:19:19.977Z,1010.925
2022-11-03T05:24:35.625Z,1010.745
2022-11-03T05:29:47.864Z,1010.561
2022-11-03T05:35:00.255Z,1010.555
2022-11-03T05:40:12.490Z,1010.458
2022-11-03T05:45:24.935Z,1010.514
2022-11-03T05:50:37.472Z,1010.505
2022-11-03T05:55:49.789Z,1010.502
2022-11-03T06:01:02.168Z,1010.43
2022-11-03T06:06:14.775Z,1010.583
2022-11-03T06:11:26.928Z,1010.691
2022-11-03T06:16:39.275Z,1010.645
2022-11-03T06:21:51.704Z,1010.721
2022-11-03T06:27:03.800Z,1010.776
2022-11-03T06:32:16.117Z,1010.735
2022-11-03T06:37:28.479Z,1010.674
2022-11-03T06:47:53.069Z,1010.523
2022-11-03T06:53:05.551Z,1010.47
2022-11-03T06:58:17.748Z,1010.382
2022-11-03T07:03:30.163Z,1010.417
2022-11-03T07:08:42.549Z,1010.378
2022-11-03T07:13:54.822Z,1010.363
2022-11-03T07:19:07.135Z,1010.438
2022-11-03T07:29:31.902Z,1010.445
2022-11-03T07:39:56.657Z,1010.447
2022-11-03T07:45:14.205Z,1010.453
2022-11-03T07:50:26.479Z,1010.419
2022-11-03T08:00:51.031Z,1010.164
2022-11-03T08:06:04.819Z,1010.083
2022-11-03T08:21:40.276Z,1009.937
2022-11-03T08:26:52.581Z,1009.815
2022-11-03T08:32:04.989Z,1009.765
2022-11-03T08:37:17.347Z,1009.703
2022-11-03T08:42:29.776Z,1009.668
2022-11-03T08:47:41.987Z,1009.586
2022-11-03T08:52:54.326Z,1009.511
2022-11-03T08:58:07.125Z,1009.457
2022-11-03T09:03:19.363Z,1009.399
2022-11-03T09:13:44.072Z,1009.285
2022-11-03T09:18:56.607Z,1009.174
2022-11-03T09:24:08.826Z,1009.107
2022-11-03T09:29:30.157Z,1008.979
2022-11-03T09:34:39.513Z,1008.908
2022-11-03T09:39:52.180Z,1008.912
2022-11-03T09:45:04.356Z,1008.939
2022-11-03T09:50:16.823Z,1008.805
2022-11-03T09:55:29.269Z,1008.765
2022-11-03T10:00:41.699Z,1008.731
2022-11-03T10:05:54.187Z,1008.568
2022-11-03T10:11:06.656Z,1008.577
2022-11-03T10:16:19.050Z,1008.483
2022-11-03T10:21:31.368Z,1008.388
2022-11-03T10:26:43.814Z,1008.364
2022-11-03T10:37:08.697Z,1008.198
2022-11-03T10:42:21.051Z,1008.19
2022-11-03T10:47:33.280Z,1008.024
2022-11-03T10:57:57.988Z,1007.84
2022-11-03T11:03:12.614Z,1007.731
2022-11-03T11:08:22.735Z,1007.682
2022-11-03T11:13:35.847Z,1007.578
2022-11-03T11:18:48.250Z,1007.476
2022-11-03T11:24:00.771Z,1007.484
2022-11-03T11:29:13.149Z,1007.332
2022-11-03T11:34:25.666Z,1007.313
2022-11-03T11:39:38.107Z,1007.124
2022-11-03T11:44:50.571Z,1007.069
2022-11-03T11:50:02.900Z,1006.974
2022-11-03T11:55:15.329Z,1006.871
2022-11-03T12:00:27.775Z,1006.787
2022-11-03T12:05:39.943Z,1006.711
2022-11-03T12:10:52.402Z,1006.651
2022-11-03T12:16:04.628Z,1006.563
2022-11-03T12:21:16.966Z,1006.527
2022-11-03T12:26:29.278Z,1006.427
2022-11-03T12:31:41.626Z,1006.372
2022-11-03T12:36:56.272Z,1006.374
2022-11-03T12:42:06.258Z,1006.296
2022-11-03T12:47:18.786Z,1006.313
2022-11-03T12:52:31.157Z,1006.2
2022-11-03T12:57:43.824Z,1006.053
2022-11-03T13:03:04.969Z,1006.041
2022-11-03T13:13:32.275Z,1005.573
2022-11-03T13:18:44.622Z,1005.614
2022-11-03T13:29:09.358Z,1005.545
2022-11-03T13:34:21.465Z,1005.457
2022-11-03T13:39:33.759Z,1005.32
2022-11-03T13:44:46.368Z,1005.127
2022-11-03T13:50:13.467Z,1004.98
2022-11-03T14:00:23.903Z,1004.705
2022-11-03T14:05:36.252Z,1004.7
2022-11-03T14:10:48.437Z,1004.713
2022-11-03T14:16:01.132Z,1004.622
2022-11-03T14:21:13.397Z,1004.534
2022-11-03T14:26:41.536Z,1004.403
2022-11-03T14:31:38.742Z,1004.395
2022-11-03T14:36:51.326Z,1004.338
2022-11-03T14:42:03.722Z,1004.225
2022-11-03T14:47:15.839Z,1004.069
2022-11-03T14:52:28.072Z,1003.936
2022-11-03T14:57:40.457Z,1003.829
2022-11-03T15:02:58.961Z,1003.701
2022-11-03T15:08:11.326Z,1003.622
2022-11-03T15:13:23.364Z,1003.488
2022-11-03T15:18:35.542Z,1003.443
2022-11-03T15:29:09.240Z,1003.416
2022-11-03T15:39:33.909Z,1003.258
2022-11-03T15:44:46.124Z,1003.08
2022-11-03T15:49:58.452Z,1002.982
2022-11-03T15:55:10.861Z,1002.891
2022-11-03T16:00:23.100Z,1002.758
2022-11-03T16:05:35.413Z,1002.59
2022-11-03T16:10:51.914Z,1002.421
2022-11-03T16:16:00.059Z,1002.262
2022-11-03T16:21:12.349Z,1002.182
2022-11-03T16:26:24.789Z,1002.198
2022-11-03T16:31:36.929Z,1002.148
2022-11-03T16:36:49.354Z,1002.086
2022-11-03T16:42:01.689Z,1001.97
2022-11-03T16:47:13.824Z,1001.787
2022-11-03T16:52:26.190Z,1001.678
2022-11-03T16:57:38.862Z,1001.714
2022-11-03T17:02:51.088Z,1001.619
2022-11-03T17:08:03.474Z,1001.579
2022-11-03T17:13:16.240Z,1001.523
2022-11-03T17:18:28.160Z,1001.458
2022-11-03T17:23:40.571Z,1001.453
2022-11-03T17:28:52.932Z,1001.431
2022-11-03T17:34:05.071Z,1001.415
2022-11-03T17:39:17.491Z,1001.373
2022-11-03T17:44:29.768Z,1001.302
2022-11-03T17:49:42.175Z,1001.058
2022-11-03T17:54:54.503Z,1001.078
2022-11-03T18:00:06.842Z,1000.976
2022-11-03T18:05:20.350Z,1000.78
2022-11-03T18:10:31.411Z,1000.799
2022-11-03T18:15:43.800Z,1000.565
2022-11-03T18:20:56.081Z,1000.309
2022-11-03T18:26:08.429Z,1000.102
2022-11-03T18:31:20.637Z,1000.129
2022-11-03T18:36:33.006Z,999.9149
2022-11-03T18:41:45.298Z,999.6599
2022-11-03T18:46:57.798Z,999.5325
2022-11-03T18:52:10.058Z,999.4962
2022-11-03T18:57:22.377Z,999.324
2022-11-03T19:02:34.873Z,999.2491
2022-11-03T19:07:47.137Z,999.1456
2022-11-03T19:12:59.551Z,999.0454
2022-11-03T19:18:12.062Z,998.9822
2022-11-03T19:23:24.419Z,998.9886
2022-11-03T19:28:36.643Z,998.9189
2022-11-03T19:33:49.034Z,998.8335
2022-11-03T19:39:01.199Z,998.802
2022-11-03T19:44:16.173Z,998.7057
2022-11-03T19:49:28.431Z,998.5999
2022-11-03T19:54:40.992Z,998.4778
2022-11-03T19:59:53.253Z,998.3178
2022-11-03T20:10:17.807Z,997.9991
2022-11-03T20:15:30.210Z,998.0625
2022-11-03T20:20:42.547Z,998.1027
2022-11-03T20:25:57.522Z,998.1197
2022-11-03T20:31:09.885Z,998.0733
2022-11-03T20:36:22.288Z,997.9637
2022-11-03T20:41:34.596Z,998.0076
2022-11-03T20:46:46.963Z,997.9847
2022-11-03T20:51:59.223Z,997.8948
2022-11-03T20:57:11.559Z,997.8975
2022-11-03T21:02:24.130Z,997.8214
2022-11-03T21:07:36.093Z,997.8549
2022-11-03T21:12:48.328Z,997.7831
2022-11-03T21:18:00.738Z,997.6816
2022-11-03T21:23:13.257Z,997.6508
2022-11-03T21:28:25.575Z,997.6223
2022-11-03T21:33:38.051Z,997.3862
2022-11-03T21:38:50.375Z,997.3784
2022-11-03T21:44:02.650Z,997.2566
2022-11-03T21:49:15.088Z,997.2202
2022-11-03T21:54:27.366Z,997.0653
2022-11-03T21:59:39.743Z,997.0745
2022-11-03T22:04:51.973Z,997.1691
2022-11-03T22:10:04.256Z,997.2153
2022-11-03T22:15:16.638Z,997.178
2022-11-03T22:20:29.033Z,997.0839
2022-11-03T22:25:41.355Z,997.1608
2022-11-03T22:30:53.584Z,997.1747
2022-11-03T22:36:06.041Z,996.9238
2022-11-03T22:41:18.434Z,996.9412
2022-11-03T22:46:30.859Z,996.837
2022-11-03T22:51:43.159Z,996.7639
2022-11-03T22:56:55.476Z,996.8456
2022-11-03T23:02:07.913Z,996.7924
2022-11-03T23:07:19.855Z,996.7042
2022-11-03T23:12:32.130Z,996.723
2022-11-03T23:17:44.414Z,996.7647
2022-11-03T23:22:56.712Z,996.7502
2022-11-03T23:28:08.896Z,996.6401
2022-11-03T23:33:21.278Z,996.5478
2022-11-03T23:38:33.371Z,996.4514
2022-11-03T23:43:45.782Z,996.4657
2022-11-03T23:48:58.371Z,996.4053
2022-11-03T23:54:10.506Z,996.3123
2022-11-03T23:59:22.867Z,996.2162
